Tiempo atmosférico en la estación meteorológica de Molina De Aragón, Guadalajara (1056 m.)



Fecha
DESCASC
Temp. máxima en grados centígrados (hora)
DESCASC
Temp. mínima en grados centígrados (hora)
DESCASC
Temp. media en grados centígrados
DESCASC
Racha de viento máxima en m/sg (hora)
DESCASC
Velocidad máxima media en intervalos de 10 minutos(hora)
DESCASC
Precipitaciones diarias en mm
DESCASC
Precipitaciones de 00:00 a 06:00 en mm
DESCASC
Precipitaciones de 06:00 a 12:00 en mm
DESCASC
Precipitaciones de 12:00 a 18:00 en mm
DESCASC
Precipitaciones de 18:00 a 24:00 en mm
DESCASC
22-01-2020 4.6 (11:30) 0.3 (01:30) 2.4 4.17 (12:00) 2.5 (12:00) 1.2 1 0.2 0 0
21-01-2020 0.6 (12:50) -1.8 (01:20) -0.6 10 (07:10) 5 (14:30) 38.6 0 0.8 18.2 19.6
20-01-2020 -0.7 (13:40) -4 (03:00) -2.3 10.28 (12:40) 4.17 (10:00) 0 0 0 0 0
19-01-2020 4.1 (00:30) -2.9 (-00:0) 0.6 11.11 (13:10) 4.72 (16:00) 1.6 0.6 0.6 0.4 0
18-01-2020 9 (13:50) -3.9 (-00:0) 2.5 11.39 (22:20) 4.72 (16:10) 1.6 0 0 0 1.6
17-01-2020 8.9 (16:40) -2.2 (-00:0) 3.3 8.89 (16:00) 4.44 (15:10) 0 0 0 0 0
16-01-2020 12.5 (13:30) 3.1 (00:00) 7.8 9.44 (12:50) 5 (15:50) 0 0 0 0 0
15-01-2020 10.7 (13:50) 0.5 (00:00) 5.6 11.39 (12:20) 5.83 (13:40) 0 0 0 0 0
14-01-2020 10.2 (15:00) -8.2 (-00:0) 1 6.39 (15:20) 3.33 (14:20) 0 0 0 0 0
13-01-2020 10 (14:30) -9.4 (-00:0) 0.3 6.39 (14:10) 3.33 (15:00) 0 0 0 0 0
12-01-2020 11.2 (14:50) -10.3 (-00:0) 0.4 5 (16:20) 2.78 (16:20) 0 0 0 0 0
11-01-2020 9.8 (17:20) -6.6 (-00:0) 1.6 3.33 (16:00) 1.39 (15:40) 0 0 0 0 0
10-01-2020 7.2 (14:00) -2.7 (-00:0) 2.2 8.06 (17:40) 3.89 (11:10) 0 0 0 0 0
09-01-2020 13.3 (14:40) -5.1 (-00:0) 4.1 6.94 (16:40) 3.89 (16:40) 0 0 0 0 0
08-01-2020 13.2 (14:10) -4.9 (-00:0) 4.1 5 (13:50) 2.5 (14:30) 0 0 0 0 0
07-01-2020 14.1 (16:20) -7.5 (-00:0) 3.3 3.33 (15:40) 1.94 (15:40) 0 0 0 0 0
06-01-2020 14 (14:40) -7.2 (-00:0) 3.4 5.28 (14:50) 2.78 (14:50) 0 0 0 0 0
05-01-2020 14.4 (16:20) -7.2 (-00:0) 3.6 3.61 (18:00) 1.39 (17:50) 0 0 0 0 0
04-01-2020 8.4 (14:10) -3.9 (-00:0) 2.2 5.28 (14:00) 3.33 (16:10) 0 0 0 0 0
03-01-2020 10.9 (14:50) -6.2 (-00:0) 2.3 5.28 (17:30) 2.5 (16:00) 0 0 0 0 0
02-01-2020 14.1 (14:40) -7.7 (-00:0) 3.2 5.28 (15:20) 2.78 (15:30) 0 0 0 0 0
01-01-2020 14.2 (16:10) -7.4 (-00:0) 3.4 2.22 (14:40) 1.39 (14:40) 0 0 0 0 0
31-12-2019 14.5 (16:20) -5.3 (-00:0) 4.6 3.06 (14:50) 1.67 (14:50) 0 0 0 0 0
30-12-2019 13.8 (16:10) -6.3 (-00:0) 3.8 1.67 (15:20) 1.11 (15:10) 0 0 0 0 0
29-12-2019 13.9 (16:10) -6.7 (-00:0) 3.6 2.22 (16:40) 1.11 (16:40) 0 0 0 0 0
28-12-2019 12.6 (16:00) -8.5 (-00:0) 2.1 2.22 (18:10) 1.11 (18:30) 0 0 0 0 0
27-12-2019 11.4 (16:20) -6.1 (-00:0) 2.6 2.22 (18:30) 1.39 (18:30) 0 0 0 0 0

Gráficas

Temp. máximas Temp. mínimas Temp. medias Precipitaciones Rachas de viento máximas Velocidades máximas media en intervalos de 10 minutos

Datos horarios

Fecha y hora oficial Temperatura (ºC) Velocidad del viento (km/h) Dirección del viento Racha (km/h) Dirección de racha Precipitación (mm) Presión (hPa) Tendencia (hPa) Humedad (%)
2020-01-25 23:00:00 2.5 3 Este 5 Este 0.6 896.3 0.8 98
2020-01-25 22:00:00 2.8 0 Calma 7 Este 0.2 896.2 1 98
2020-01-25 21:00:00 2.9 4 Este 6 Nordeste 0.4 895.9 1.2 98
2020-01-25 20:00:00 3.1 2 Sudeste 5 Este 0.6 895.5 0.9 97
2020-01-25 19:00:00 3.7 3 Sudeste 5 Sudoeste 0.2 895.2 0.5 95
2020-01-25 18:00:00 4.1 3 Sudoeste 9 Sudeste 0.6 894.7 -0.2 93
2020-01-25 17:00:00 5.2 5 Sudeste 8 Sudeste 0.6 894.6 -0.8 89
2020-01-25 16:00:00 6.4 4 Sudeste 11 Sur 0.2 894.7 -1.6 82
2020-01-25 15:00:00 7.7 6 Sur 12 Sur 0 894.9 -2 71
2020-01-25 14:00:00 7.9 5 Sudoeste 10 Sudoeste 0 895.4 -1.6 73
2020-01-25 13:00:00 7.1 2 Sudoeste 6 Sudeste 0 896.3 -0.5 77
2020-01-25 12:00:00 5.4 2 Sur 5 Sur 0 896.9 0.3 85
2020-01-25 11:00:00 3.3 2 Oeste 5 Sur 0 897 0.7 94
2020-01-25 10:00:00 1.8 2 Sur 4 Sudoeste 0 896.8 0.9 99
2020-01-25 09:00:00 1.1 0 Calma 4 Sur 0.8 896.6 0.5 99
2020-01-25 08:00:00 0.9 2 Sudeste 7 Sur 0.8 896.3 0 99
2020-01-25 07:00:00 0.7 2 Nordeste 4 Este 0 895.9 -0.8 98
2020-01-25 06:00:00 0.7 2 Sudeste 4 Sur 0 896.1 -0.9 97
2020-01-25 05:00:00 0.8 0 Calma 7 Sudeste 0 896.3 -1.2 97
2020-01-25 04:00:00 0.8 3 Noroeste 5 Oeste 0 896.7 -1.2 98
2020-01-25 03:00:00 0.8 3 Este 6 Norte 0 897 -1.3 96
2020-01-25 02:00:00 1.5 2 Sudeste 10 Este 0 897.5 -0.9 96
2020-01-25 01:00:00 1.5 3 Sudeste 4 Sudeste 0 897.9 -0.6 95
2020-01-25 00:00:00 1.6 2 Sudeste 5 Sudoeste 0 898.3 -0.1 95
2020-01-24 23:00:00 1.8 2 Nordeste 5 Sudeste 0 898.4 0.1 94
2020-01-24 22:00:00 1.9 0 Calma 4 Sur 0 898.5 0.7 93
2020-01-24 21:00:00 2.1 0 Calma 5 Este 0 898.4 1 92
2020-01-24 20:00:00 2.5 3 Sudeste 5 Sudeste 0 898.3 0.9 89
2020-01-24 19:00:00 3.1 4 Este 7 Este 0 897.8 0.1 87
2020-01-24 18:00:00 4.3 2 Nordeste 7 Este 0 897.4 -0.6 84
2020-01-24 17:00:00 5.3 2 Sudoeste 5 Sur 0 897.4 -1.2 79
2020-01-24 16:00:00 5.8 2 Sudeste 6 Sudeste 0 897.7 -1.7 76
2020-01-24 15:00:00 5.2 2 Sudeste 4 Sudeste 0 898 -1.9 78
2020-01-24 14:00:00 4.2 0 Calma 5 Sudeste 0 898.6 -1.1 82
2020-01-24 13:00:00 3.4 3 Sudeste 7 Este 0 899.4 0.1 83
2020-01-24 12:00:00 2.5 3 Sur 5 Sudeste 0 899.9 0.9 86
2020-01-24 11:00:00 1.1 0 Calma 6 Sur 0 899.7 1 91
2020-01-24 10:00:00 -0.4 2 Sur 4 Sudoeste 0 899.3 0.8 98
2020-01-24 09:00:00 -1.6 0 Calma 3 Este 0 899 0.5 98
2020-01-24 08:00:00 -1.9 0 Calma 3 Este 0 898.7 0.4 99
2020-01-24 07:00:00 -2.2 2 Sudeste 4 Sudeste 0 898.5 -0.3 99
2020-01-24 06:00:00 -2.6 3 Sudeste 8 Sudoeste 0 898.5 -0.2 99
2020-01-24 05:00:00 -2.8 0 Calma 4 Este 0 898.3 -0.7 98
2020-01-24 04:00:00 -2.6 0 Calma 5 Sudeste 0 898.8 -0.3 97
2020-01-24 03:00:00 -1.9 3 Este 5 Este 0 898.7 -0.4 96
2020-01-24 02:00:00 -1.2 3 Sudeste 4 Sudeste 0 899 -0.1 95
2020-01-24 01:00:00 -0.2 0 Calma 5 Sudeste 0 899.1 0.3 94
2020-01-24 00:00:00 0.9 2 Este 6 Este 0 899.1 0.5 92
2020-01-23 23:00:00 1.8 2 Este 8 Sudoeste 0 899.1 1 94
2020-01-23 22:00:00 1.7 0 Calma 4 Sur 0 898.8 1.1 93
2020-01-23 21:00:00 1.7 2 Sudoeste 5 Este 0 898.6 1.5 93
2020-01-23 20:00:00 1.9 0 Calma 5 Este 0 898.1 1 91
2020-01-23 19:00:00 2.4 3 Este 5 Este 0 897.7 0.8 89
2020-01-23 18:00:00 3.5 0 Calma 6 Sudeste 0 897.1 0.4 84
2020-01-23 17:00:00 4.4 2 Sudeste 7 Sudeste 0 897.1 0.1 78
2020-01-23 16:00:00 5.2 3 Este 7 Sudeste 0 896.9 -0.5 74
2020-01-23 15:00:00 5.8 2 Sudeste 10 Nordeste 0 896.7 -1.3 71
2020-01-23 14:00:00 5.3 3 Sudeste 9 Sur 0 897 -1.1 69
2020-01-23 13:00:00 4.8 3 Sur 7 Sur 0 897.4 -0.3 72
2020-01-23 12:00:00 3.2 2 Sur 6 Sur 0 898 0.8 77
2020-01-23 11:00:00 1.2 0 Calma 5 Este 0 898.1 1.2 90
2020-01-23 10:00:00 -0.8 0 Calma 3 Sudoeste 0 897.7 1.4 99
2020-01-23 09:00:00 -1.8 2 Sur 7 Sudoeste 0 897.2 0.8 98
2020-01-23 08:00:00 -1.5 0 Calma 6 Sur 0 896.9 0.8 98
2020-01-23 07:00:00 -0.5 2 Este 7 Sudoeste 0 896.3 -0.5 98
2020-01-23 06:00:00 0.4 0 Calma 8 Sur 0 896.4 -0.7 98
2020-01-23 05:00:00 0.8 0 Calma 3 Sur 0 896.1 -1.4 99
2020-01-23 04:00:00 0.9 0 Calma 4 Sudoeste 0 896.8 -0.9 99
2020-01-23 03:00:00 0.9 2 Sudeste 4 Norte 0 897.1 -0.9 99
2020-01-23 02:00:00 0.9 0 Calma 4 Nordeste 0 897.5 0.1 99
2020-01-23 01:00:00 1 3 Este 5 Este 0 897.7 0.5 99
2020-01-23 00:00:00 1 3 Este 10 Nordeste 0 898 0.9 99
2020-01-22 23:00:00 1 5 Norte 9 Norte 0 897.4 0.6 97
2020-01-22 22:00:00 1 2 Nordeste 9 Norte 0 897.2 0.7 97
2020-01-22 21:00:00 1 3 Nordeste 6 Norte 0 897.1 1 97
2020-01-22 20:00:00 1.2 2 Nordeste 9 Norte 0 896.8 0.4 97
2020-01-22 19:00:00 1.5 3 Este 9 Sur 0 896.5 -0.3 96
2020-01-22 18:00:00 2.2 2 Nordeste 13 Norte 0 896.1 -0.9 92
2020-01-22 17:00:00 2.5 4 Nordeste 11 Norte 0 896.4 -1.1 91
2020-01-22 16:00:00 2.9 4 Nordeste 15 Este 0 896.8 -1.5 91
2020-01-22 15:00:00 3.9 5 Nordeste 15 Norte 0 897 -1.8 87
2020-01-22 14:00:00 4 4 Nordeste 10 Este 0 897.5 -1.3 85
2020-01-22 13:00:00 3.5 6 Este 13 Este 0 898.3 -0.1 87
2020-01-22 12:00:00 3.6 9 Este 15 Sudeste 0 898.8 0.8 87
2020-01-22 11:00:00 3.6 4 Nordeste 8 Sur 0 898.8 0.8 90
2020-01-22 10:00:00 1.9 3 Este 8 Este 0 898.4 0.8 97
2020-01-22 09:00:00 1.3 4 Nordeste 10 Este 0.2 898 0.6 99
2020-01-22 08:00:00 1.2 3 Sudeste 10 Sudeste 0 898 0.2 100
2020-01-22 07:00:00 1 3 Sudeste 13 Este 0 897.6 -0.6 100
2020-01-22 06:00:00 0.8 5 Nordeste 12 Nordeste 0 897.4 -0.7 100
2020-01-22 05:00:00 0.7 3 Nordeste 7 Este 0 897.8 0.1 100
2020-01-22 04:00:00 0.6 0 Calma 10 Este 0 898.2 0.6 100
2020-01-22 03:00:00 0.6 4 Sudeste 10 Este 0.2 898.1 0.6 99
2020-01-22 02:00:00 0.4 4 Nordeste 14 Norte 0.6 897.7 0.7 98
2020-01-22 01:00:00 0.5 5 Nordeste 13 Norte 0.2 897.6 0.1 98
2020-01-22 00:00:00 0.5 10 Nordeste 19 Norte 0.2 897.5 0 99
2020-01-21 23:00:00 0.5 11 Norte 18 Nordeste 2.2 897 0 99
2020-01-21 22:00:00 0.5 8 Nordeste 11 Nordeste 4 897.5 1.3 99
2020-01-21 21:00:00 0.5 9 Nordeste 13 Nordeste 4.8 897.5 1.6 99
2020-01-21 20:00:00 0.4 5 Nordeste 11 Norte 4.6 897 1.6 99
2020-01-21 19:00:00 0.3 7 Nordeste 14 Nordeste 3.8 896.2 0.5 99
2020-01-21 18:00:00 0.3 10 Nordeste 24 Norte 4.6 895.9 0.3 99
2020-01-21 17:00:00 0.4 12 Nordeste 25 Norte 3.6 895.4 -1 98
2020-01-21 16:00:00 0.1 13 Nordeste 32 Nordeste 4 895.7 -1.9 98
2020-01-21 15:00:00 0.2 12 Nordeste 34 Nordeste 3.4 895.6 -2.9 98
2020-01-21 14:00:00 0.2 17 Nordeste 32 Nordeste 1.6 896.4 -2.2 97
2020-01-21 13:00:00 0.5 11 Nordeste 31 Nordeste 1 897.6 -1 94
2020-01-21 12:00:00 0.5 8 Nordeste 26 Nordeste 0 898.5 -0.4 92
2020-01-21 11:00:00 0 7 Nordeste 27 Nordeste 0.2 898.6 -0.2 94
2020-01-21 10:00:00 -0.4 11 Nordeste 23 Nordeste 0.2 898.6 -0.1 92
2020-01-21 09:00:00 -1 7 Nordeste 23 Norte 0 898.9 0.4 93
2020-01-21 08:00:00 -1.3 10 Nordeste 36 Este 0.4 898.8 -0.6 94
2020-01-21 07:00:00 -1.2 11 Nordeste 34 Nordeste 0 898.7 -1.4 93
2020-01-21 06:00:00 -1 14 Nordeste 35 Este 0 898.5 -2.3 93
2020-01-21 05:00:00 -1.1 10 Nordeste 27 Este 0 899.4 -1.9 93
2020-01-21 04:00:00 -1.6 9 Nordeste 29 Este 0 900.1 -1.6 92
2020-01-21 03:00:00 -1.6 8 Nordeste 19 Norte 0 900.8 -0.7 92
2020-01-21 02:00:00 -1.7 5 Nordeste 24 Este 0 901.3 -0.3 92
2020-01-21 01:00:00 -1.7 7 Nordeste 26 Este 0 901.7 0.3 92
2020-01-21 00:00:00 -1.7 9 Nordeste 33 Este 0 901.5 0 92
2020-01-20 23:00:00 -1.7 10 Nordeste 30 Este 0 901.6 -0.1 91
2020-01-20 22:00:00 -1.2 13 Nordeste 33 Este 0 901.4 -0.2 90
2020-01-20 21:00:00 -1.7 11 Nordeste 26 Este 0 901.5 0.1 91
2020-01-20 20:00:00 -1.9 9 Nordeste 30 Nordeste 0 901.7 0.5 90
2020-01-20 19:00:00 -1.9 10 Nordeste 32 Este 0 901.6 0.7 89
2020-01-20 18:00:00 -1.7 9 Nordeste 27 Nordeste 0 901.4 0.3 90
2020-01-20 17:00:00 -1.5 13 Nordeste 27 Este 0 901.2 -0.2 88
2020-01-20 16:00:00 -1.2 12 Nordeste 26 Nordeste 0 900.9 -0.3 89
2020-01-20 15:00:00 -1.1 10 Nordeste 33 Este 0 901.1 -0.4 86
2020-01-20 14:00:00 -0.9 12 Nordeste 30 Nordeste 0 901.4 -0.5 82
2020-01-20 13:00:00 -0.9 14 Nordeste 37 Este 0 901.2 -0.2 79
2020-01-20 12:00:00 -1 12 Nordeste 35 Nordeste 0 901.5 0.3 71
2020-01-20 11:00:00 -2 8 Nordeste 27 Este 0 901.9 0.8 69
2020-01-20 10:00:00 -2.5 15 Este 31 Este 0 901.4 0.8 67
2020-01-20 09:00:00 -2.9 5 Nordeste 14 Nordeste 0 901.2 0.4 73
2020-01-20 08:00:00 -3.5 3 Nordeste 17 Nordeste 0 901.1 0.3 75
2020-01-20 07:00:00 -3 9 Nordeste 25 Nordeste 0 900.6 -0.6 75
2020-01-20 06:00:00 -3.4 8 Nordeste 18 Nordeste 0 900.8 -0.6 78
2020-01-20 05:00:00 -3.7 5 Nordeste 12 Nordeste 0 900.8 -0.9 79
2020-01-20 04:00:00 -3.8 4 Nordeste 9 Norte 0 901.2 -0.7 81
2020-01-20 03:00:00 -3.9 2 Nordeste 6 Este 0 901.4 -0.7 83
2020-01-20 02:00:00 -3.4 4 Nordeste 13 Nordeste 0 901.7 -0.1 77
2020-01-20 01:00:00 -3.2 4 Nordeste 18 Nordeste 0 901.9 0.6 77
2020-01-20 00:00:00 -2.8 5 Nordeste 13 Norte 0 902.1 1.1 76
2020-01-19 23:00:00 -2 5 Nordeste 15 Nordeste 0 901.8 1.5 73
2020-01-19 22:00:00 -1.4 8 Nordeste 21 Nordeste 0 901.3 1.7 70
2020-01-19 21:00:00 -1 6 Nordeste 19 Nordeste 0 901 1.7 65
2020-01-19 20:00:00 -0.5 7 Nordeste 24 Norte 0 900.3 1.5 64
2020-01-19 19:00:00 0 6 Nordeste 22 Nordeste 0 899.6 1.3 67
2020-01-19 18:00:00 1.1 11 Norte 32 Nordeste 0 899.3 1 65
2020-01-19 17:00:00 2.6 13 Nordeste 32 Nordeste 0 898.8 0.1 68
2020-01-19 16:00:00 2.9 17 Norte 36 Norte 0 898.3 -0.5 76
2020-01-19 15:00:00 2.5 17 Norte 36 Norte 0 898.3 -0.2 81
2020-01-19 14:00:00 1.9 15 Norte 40 Nordeste 0 898.7 0.6 90
2020-01-19 13:00:00 1.3 13 Norte 37 Norte 0.4 898.8 1.6 96
2020-01-19 12:00:00 2.2 15 Norte 32 Nordeste 0.2 898.5 1.9 95
2020-01-19 11:00:00 2 11 Norte 26 Norte 0 898.1 2 95
2020-01-19 10:00:00 1.8 3 Nordeste 16 Norte 0.2 897.2 1.3 96
2020-01-19 09:00:00 1.8 5 Norte 18 Noroeste 0 896.6 0.4 95
2020-01-19 08:00:00 1.7 3 Noroeste 9 Sur 0 896.1 -0.6 95
2020-01-19 07:00:00 1.2 4 Oeste 6 Noroeste 0.2 895.9 -1.1 96
2020-01-19 06:00:00 1.4 2 Sudoeste 6 Noroeste 0.6 896.2 -1 94
2020-01-19 05:00:00 1.5 2 Este 5 Norte 0 896.7 0 94
2020-01-19 04:00:00 1.9 3 Norte 4 Norte 0 897 -0.8 93
2020-01-19 03:00:00 2.9 0 Calma 15 Oeste 0 897.2 -0.6 93
2020-01-19 02:00:00 3.5 5 Noroeste 15 Oeste 0 896.7 -1.2 90
2020-01-19 01:00:00 3.8 5 Norte 15 Oeste 0 897.8 0.6 93
2020-01-19 00:00:00 3.8 10 Oeste 22 Oeste 0 897.8 -0.1 93
2020-01-18 23:00:00 3.1 5 Oeste 41 Oeste 1.6 897.9 -0.4 93
2020-01-18 22:00:00 6.7 10 Sudoeste 22 Oeste 0 897.2 -1.1 89
2020-01-18 21:00:00 7 7 Oeste 18 Oeste 0 897.9 -0.9 90
2020-01-18 20:00:00 7.4 10 Oeste 27 Oeste 0 898.3 -1.2 85
2020-01-18 19:00:00 7.1 8 Sudoeste 25 Sur 0 898.3 -2.1 86
2020-01-18 18:00:00 7 10 Sudoeste 26 Sur 0 898.8 -2.9 86
2020-01-18 17:00:00 7.2 11 Sudoeste 32 Sudoeste 0 899.5 -3.4 82
2020-01-18 16:00:00 7.5 14 Sudoeste 33 Oeste 0 900.4 -3.8 78
2020-01-18 15:00:00 7.7 12 Sudoeste 30 Oeste 0 901.7 -3.6 75
2020-01-18 14:00:00 8.5 14 Sudoeste 31 Sudoeste 0 902.9 -2.9 71
2020-01-18 13:00:00 7.5 14 Sudoeste 29 Sudoeste 0 904.2 -1.9 74
2020-01-18 12:00:00 6.3 13 Sudoeste 27 Sudoeste 0 905.3 -1.3 79
2020-01-18 11:00:00 4.5 10 Sudoeste 21 Sudoeste 0 905.8 -0.3 92
2020-01-18 10:00:00 1 3 Este 5 Este 0 906.1 -0.4 95
2020-01-18 09:00:00 0 3 Este 10 Sudoeste 0 906.6 -0.8 95
2020-01-18 08:00:00 -1.2 3 Sudeste 6 Este 0 906.1 -1 93
2020-01-18 07:00:00 -1.7 0 Calma 6 Este 0 906.5 -0.9 94
2020-01-18 06:00:00 -2.3 3 Este 5 Este 0 907.4 0 94
2020-01-18 05:00:00 -2.9 2 Este 4 Sudeste 0 907.1 -0.8 94
2020-01-18 04:00:00 -3.5 0 Calma 6 Sudeste 0 907.4 -1.2 95
2020-01-18 03:00:00 -3.7 0 Calma 6 Este 0 907.4 -1.5 89
2020-01-18 02:00:00 -2.7 3 Este 5 Este 0 907.9 -1 92
2020-01-18 01:00:00 -2.4 0 Calma 4 Norte 0 908.6 -0.4 90
2020-01-18 00:00:00 -2.2 3 Este 10 Sudeste 0 908.9 0 91
2020-01-17 23:00:00 -1.8 3 Sudeste 12 Este 0 908.9 0.3 88
2020-01-17 22:00:00 -0.4 3 Sudeste 8 Sudeste 0 909 0.9 84
2020-01-17 21:00:00 1.4 4 Este 9 Este 0 908.9 1.5 78
2020-01-17 20:00:00 4.4 3 Noroeste 15 Oeste 0 908.6 1.6 70
2020-01-17 19:00:00 6.1 6 Oeste 17 Oeste 0 908.1 1.5 65
2020-01-17 18:00:00 7.6 8 Oeste 26 Oeste 0 907.4 0.9 61
2020-01-17 17:00:00 8.7 14 Oeste 32 Oeste 0 907 0.4 59
2020-01-17 16:00:00 8.3 13 Oeste 32 Sudoeste 0 906.6 -0.3 61
2020-01-17 15:00:00 7.7 13 Oeste 29 Sudoeste 0 906.5 -0.7 70
2020-01-17 14:00:00 7 12 Oeste 28 Oeste 0 906.6 -0.2 83
2020-01-17 13:00:00 6.6 9 Oeste 24 Oeste 0 906.9 0.6 80
2020-01-17 12:00:00 6 8 Sudoeste 24 Sudoeste 0 907.2 1.8 80
2020-01-17 11:00:00 6 9 Sudoeste 26 Sudoeste 0 906.8 1.6 76
2020-01-17 10:00:00 5.8 10 Oeste 22 Sudoeste 0 906.3 1.5 76
2020-01-17 09:00:00 5.2 13 Sudoeste 24 Sudoeste 0 905.4 1 76
2020-01-17 08:00:00 5.3 8 Sudoeste 27 Oeste 0 905.2 1.2 75
2020-01-17 07:00:00 5.8 13 Oeste 23 Noroeste 0 904.8 1.1 72
2020-01-17 06:00:00 6 9 Oeste 21 Sudoeste 0 904.4 0.3 71
2020-01-17 05:00:00 5.8 7 Oeste 19 Oeste 0 904 -0.3 67
2020-01-17 04:00:00 5.6 5 Oeste 17 Oeste 0 903.7 -0.5 65
2020-01-17 03:00:00 6.6 6 Sudoeste 24 Sudoeste 0 904.1 -0.2 60
2020-01-17 02:00:00 7 11 Oeste 24 Sudoeste 0 904.3 0.4 58
2020-01-17 01:00:00 6 7 Oeste 19 Sudoeste 0 904.2 0.3 62
2020-01-17 00:00:00 7 11 Sudoeste 22 Oeste 0 904.3 0.5 59
2020-01-16 23:00:00 7.4 10 Sudoeste 23 Sudoeste 0 903.9 0.3 59
2020-01-16 22:00:00 6 7 Sudoeste 18 Sur 0 903.9 0.3 67
2020-01-16 21:00:00 4.7 4 Sudoeste 11 Sur 0 903.8 0.6 75
2020-01-16 20:00:00 5.6 6 Sudoeste 11 Sur 0 903.6 0.6 73
2020-01-16 19:00:00 6.8 6 Sudoeste 12 Sudoeste 0 903.6 0.2 72
2020-01-16 18:00:00 9.3 6 Sudoeste 20 Sudoeste 0 903.2 -0.4 64
2020-01-16 17:00:00 11 14 Sudoeste 31 Sur 0 903 -1.2 55
2020-01-16 16:00:00 11.5 14 Sudoeste 30 Sudoeste 0 903.4 -1.1 59
2020-01-16 15:00:00 11.4 12 Sudoeste 30 Sudoeste 0 903.6 -1.6 65
2020-01-16 14:00:00 12.2 14 Sudoeste 33 Sudoeste 0 904.2 -1.2 63
2020-01-16 13:00:00 12 14 Sudoeste 34 Sur 0 904.5 -0.6 65
2020-01-16 12:00:00 11.4 12 Sudoeste 23 Sudoeste 0 905.2 0.2 67
2020-01-16 11:00:00 9.2 10 Sudoeste 19 Sudoeste 0 905.4 0.4 76
2020-01-16 10:00:00 5.4 9 Sur 20 Sur 0 905.1 0 93
2020-01-16 09:00:00 3.3 2 Este 8 Este 0 905 0.3 91
2020-01-16 08:00:00 5.4 3 Este 9 Sur 0 905 0.2 85
2020-01-16 07:00:00 7.2 6 Sur 17 Sur 0 905.1 0.1 84
2020-01-16 06:00:00 6.6 4 Sudeste 13 Sudeste 0 904.7 -0.5 87
2020-01-16 05:00:00 6.4 0 Calma 4 Este 0 904.8 0 89
2020-01-16 04:00:00 6.5 3 Nordeste 11 Sudoeste 0 905 -0.4 87
2020-01-16 03:00:00 6.5 4 Oeste 9 Sudoeste 0 905.2 -0.3 88
2020-01-16 02:00:00 6 5 Sudoeste 8 Oeste 0 904.8 -0.3 89
2020-01-16 01:00:00 5.9 0 Calma 8 Sudeste 0 905.4 0.3 86
2020-01-16 00:00:00 6 3 Este 5 Sudeste 0 905.5 0.4 86
2020-01-15 23:00:00 6.1 2 Sur 8 Sudoeste 0 905.1 0.1 85
2020-01-15 22:00:00 6.5 5 Oeste 10 Oeste 0 905.1 0.8 85
2020-01-15 21:00:00 6.6 0 Calma 8 Oeste 0 905.1 1.7 81
2020-01-15 20:00:00 6.8 4 Oeste 20 Sudoeste 0 905 2.4 81
2020-01-15 19:00:00 7 9 Oeste 27 Oeste 0 904.3 1.8 81
2020-01-15 18:00:00 7.5 13 Oeste 33 Oeste 0 903.4 1.2 78
2020-01-15 17:00:00 8.3 15 Oeste 32 Sudoeste 0 902.6 0.2 71
2020-01-15 16:00:00 9.4 12 Sudoeste 36 Oeste 0 902.5 -0.1 66
2020-01-15 15:00:00 9.5 17 Sudoeste 33 Oeste 0 902.2 -0.7 63
2020-01-15 14:00:00 10.1 18 Sudoeste 38 Oeste 0 902.4 0.1 59
2020-01-15 13:00:00 9.5 14 Sudoeste 41 Oeste 0 902.6 1 59
2020-01-15 12:00:00 8.3 13 Sudoeste 30 Oeste 0 902.9 1.7 64
2020-01-15 11:00:00 6.3 12 Sudoeste 26 Sudoeste 0 902.3 1.6 76
2020-01-15 10:00:00 3.6 8 Oeste 16 Oeste 0 901.6 1.5 89
2020-01-15 09:00:00 1.4 2 Sudoeste 15 Oeste 0 901.2 1.2 87
2020-01-15 08:00:00 2.7 6 Oeste 16 Oeste 0 900.7 0.6 85
2020-01-15 07:00:00 4.3 7 Sudoeste 21 Oeste 0 900.1 0 85
2020-01-15 06:00:00 3.2 3 Sudoeste 12 Noroeste 0 900 -0.1 85
2020-01-15 05:00:00 1.4 0 Calma 6 Sudeste 0 900.1 0.1 89
2020-01-15 04:00:00 0.9 2 Este 6 Sudeste 0 900.1 -0.3 92
2020-01-15 03:00:00 1.7 0 Calma 9 Sudoeste 0 900.1 -0.3 82
2020-01-15 02:00:00 3.9 3 Oeste 18 Sudoeste 0 900 -0.5 79
2020-01-15 01:00:00 3.6 8 Sudoeste 17 Sudoeste 0 900.4 0.1 81
2020-01-15 00:00:00 3.7 4 Oeste 14 Sudoeste 0 900.4 0.4 79
2020-01-14 23:00:00 2.9 6 Sudoeste 21 Sudoeste 0 900.5 0.8 82
2020-01-14 22:00:00 -3 0 Calma 6 Este 0 900.3 0.9 80
2020-01-14 21:00:00 -1.4 3 Este 6 Este 0 900 1.1 72
2020-01-14 20:00:00 1 3 Sudoeste 8 Sudoeste 0 899.7 1.1 65
2020-01-14 19:00:00 3.3 4 Sudoeste 15 Oeste 0 899.4 1 50
2020-01-14 18:00:00 6.6 3 Sudoeste 18 Sudoeste 0 898.9 0.5 39
2020-01-14 17:00:00 9.1 9 Sudoeste 23 Sudoeste 0 898.6 -0.2 35
2020-01-14 16:00:00 9.6 12 Oeste 23 Oeste 0 898.4 -1 38
2020-01-14 15:00:00 10 11 Oeste 23 Oeste 0 898.4 -1.8 41
2020-01-14 14:00:00 9.9 11 Oeste 22 Oeste 0 898.8 -2 44
2020-01-14 13:00:00 7.9 10 Oeste 20 Oeste 0 899.4 -1.1 51
2020-01-14 12:00:00 4.2 4 Noroeste 13 Noroeste 0 900.2 -0.2 65
2020-01-14 11:00:00 -1.3 2 Sur 5 Sudeste 0 900.8 0.6 88
2020-01-14 10:00:00 -6.3 0 Calma 5 Sudeste 0 900.5 0.3 95
2020-01-14 09:00:00 -8.1 0 Calma 5 Este 0 900.4 0.5 90
2020-01-14 08:00:00 -7.9 0 Calma 4 Este 0 900.2 0.4 90
2020-01-14 07:00:00 -7.4 0 Calma 6 Sudeste 0 900.2 0 90
2020-01-14 06:00:00 -7 0 Calma 4 Este 0 899.9 -0.3 89
2020-01-14 05:00:00 -6.2 2 Este 7 Este 0 899.8 -1 92
2020-01-14 04:00:00 -6 0 Calma 5 Norte 0 900.2 -0.9 90
2020-01-14 03:00:00 -5.5 4 Este 7 Este 0 900.2 -0.9 88
2020-01-14 02:00:00 -5.3 2 Nordeste 5 Sudeste 0 900.8 -0.1 87
2020-01-14 01:00:00 -4.5 0 Calma 5 Este 0 901.1 0.3 82
2020-01-14 00:00:00 -3.4 2 Nordeste 8 Este 0 901.1 0.4 82
2020-01-13 23:00:00 -3.7 2 Este 4 Este 0 900.9 0.1 78
2020-01-13 22:00:00 -2.6 0 Calma 4 Nordeste 0 900.8 -0.1 74
2020-01-13 21:00:00 -1.3 2 Sudoeste 5 Oeste 0 900.7 -0.2 68
2020-01-13 20:00:00 0.5 0 Calma 8 Sur 0 900.8 -0.1 60
2020-01-13 19:00:00 1.8 0 Calma 6 Este 0 900.9 0.1 51
2020-01-13 18:00:00 5.4 2 Nordeste 13 Sudoeste 0 900.9 0.1 36
2020-01-13 17:00:00 8 8 Sudoeste 18 Oeste 0 900.9 -0.2 28
2020-01-13 16:00:00 8.9 9 Sudoeste 19 Sudoeste 0 900.8 -1.1 25
2020-01-13 15:00:00 9.6 12 Oeste 23 Oeste 0 900.8 -2.4 28
2020-01-13 14:00:00 9.5 12 Oeste 22 Sudoeste 0 901.1 -2.5 30
2020-01-13 13:00:00 5.3 7 Oeste 14 Oeste 0 901.9 -1.7 52
2020-01-13 12:00:00 -0.4 0 Calma 4 Sudoeste 0 903.2 -0.1 69
2020-01-13 11:00:00 -4 0 Calma 4 Sur 0 903.6 -0.2 80
2020-01-13 10:00:00 -7 2 Sudeste 5 Sur 0 903.6 -0.3 88
2020-01-13 09:00:00 -9.2 2 Sudeste 5 Nordeste 0 903.3 -0.9 89
2020-01-13 08:00:00 -9.4 0 Calma 3 Sudeste 0 903.8 -0.7 88
2020-01-13 07:00:00 -9.2 3 Sur 4 Sur 0 903.9 -1.2 89
2020-01-13 06:00:00 -9.2 0 Calma 3 Este 0 904.2 -1.2 88
2020-01-13 05:00:00 -9 2 Sudeste 4 Sudeste 0 904.5 -1.1 88
2020-01-13 04:00:00 -8.9 0 Calma 3 Sudeste 0 905.1 -1.2 86
2020-01-13 03:00:00 -8.5 2 Este 5 Sudeste 0 905.4 -1.2 86
2020-01-13 02:00:00 -8.1 2 Sur 6 Sudeste 0 905.6 -1.2 86
2020-01-13 01:00:00 -7.7 3 Este 4 Sudeste 0 906.3 -0.6 86
2020-01-13 00:00:00 -7.1 0 Calma 4 Nordeste 0 906.6 -0.5 81
2020-01-12 23:00:00 -6 2 Este 6 Sudeste 0 906.8 -0.1 77
2020-01-12 22:00:00 -4.8 0 Calma 6 Este 0 906.9 0.5 73
2020-01-12 21:00:00 -3.5 0 Calma 7 Sudeste 0 907.1 1.4 68
2020-01-12 20:00:00 -1.6 4 Este 7 Este 0 906.9 1.5 61
2020-01-12 19:00:00 1.5 3 Este 11 Este 0 906.4 1.1 50
2020-01-12 18:00:00 6.1 2 Nordeste 8 Este 0 905.7 0.4 37
2020-01-12 17:00:00 9.6 5 Nordeste 18 Nordeste 0 905.4 -0.4 29
2020-01-12 16:00:00 11.1 8 Nordeste 17 Nordeste 0 905.3 -1.7 26
2020-01-12 15:00:00 11.1 3 Sur 8 Sur 0 905.3 -2.8 26
2020-01-12 14:00:00 9.8 2 Sur 5 Sur 0 905.8 -2.5 29
2020-01-12 13:00:00 5.4 2 Oeste 5 Sudoeste 0 907 -1.1 47
2020-01-12 12:00:00 0.9 2 Oeste 5 Sur 0 908.1 0.3 58
2020-01-12 11:00:00 -3.7 0 Calma 5 Sur 0 908.3 0.6 82
2020-01-12 10:00:00 -8.5 2 Sur 4 Sudoeste 0 908.1 0.4 93
2020-01-12 09:00:00 -10.2 2 Este 3 Sudeste 0 907.8 0.4 89
2020-01-12 08:00:00 -10.1 2 Este 3 Sudeste 0 907.7 0.4 88
2020-01-12 07:00:00 -9.6 2 Nordeste 4 Sudeste 0 907.7 0.2 88
2020-01-12 06:00:00 -9.6 3 Este 4 Este 0 907.4 -0.2 88
2020-01-12 05:00:00 -9.1 2 Este 4 Sudeste 0 907.3 -0.3 90
2020-01-12 04:00:00 -8.7 0 Calma 3 Este 0 907.5 -0.4 90
2020-01-12 03:00:00 -8.2 0 Calma 3 Sudeste 0 907.6 -0.5 87
2020-01-12 02:00:00 -7.9 0 Calma 3 Nordeste 0 907.6 -0.5 88
2020-01-12 01:00:00 -7.2 2 Este 5 Sudeste 0 907.9 0 86
2020-01-12 00:00:00 -6.5 3 Este 6 Este 0 908.1 0.4 85
2020-01-11 23:00:00 -5.7 2 Este 4 Este 0 908.1 0.7 83
2020-01-11 22:00:00 -4.9 2 Este 5 Este 0 907.9 1.1 80
2020-01-11 21:00:00 -3.4 2 Sudeste 5 Este 0 907.7 1.4 73
2020-01-11 20:00:00 -1.5 3 Este 6 Este 0 907.4 1.2 68
2020-01-11 19:00:00 1.5 3 Este 6 Oeste 0 906.8 0.6 57
2020-01-11 18:00:00 6.9 4 Oeste 9 Sudoeste 0 906.3 -0.2 41
2020-01-11 17:00:00 9.5 4 Oeste 9 Noroeste 0 906.2 -0.9 31
2020-01-11 16:00:00 9 5 Oeste 12 Oeste 0 906.2 -1.9 34
2020-01-11 15:00:00 8.7 4 Noroeste 9 Sudoeste 0 906.5 -2.5 29
2020-01-11 14:00:00 7.5 5 Sur 8 Sur 0 907.1 -2.4 42
2020-01-11 13:00:00 3.9 3 Sudoeste 7 Sudoeste 0 908.1 -0.9 71
2020-01-11 12:00:00 -0.2 4 Sudoeste 8 Sudoeste 0 909 0.5 91
2020-01-11 11:00:00 -3.9 3 Sudoeste 5 Sudeste 0 909.5 1.2 98
2020-01-11 10:00:00 -4.7 2 Sudeste 6 Oeste 0 909 1.2 98
2020-01-11 09:00:00 -4.8 3 Sudoeste 6 Oeste 0 908.5 0.7 98
2020-01-11 08:00:00 -5.2 0 Calma 4 Sudeste 0 908.3 0.6 97
2020-01-11 07:00:00 -5.8 2 Este 4 Sudeste 0 907.8 0 94
2020-01-11 06:00:00 -6.5 0 Calma 5 Sudeste 0 907.8 0 91
2020-01-11 05:00:00 -5.8 0 Calma 5 Este 0 907.7 0.1 91
2020-01-11 04:00:00 -5 2 Este 5 Este 0 907.8 0.3 91
2020-01-11 03:00:00 -4.3 2 Este 5 Sur 0 907.8 0 92
2020-01-11 02:00:00 -3.5 3 Sudeste 7 Sur 0 907.6 0.3 93
2020-01-11 01:00:00 -2.9 2 Nordeste 7 Este 0 907.5 0.4 94
2020-01-11 00:00:00 -2.6 3 Este 7 Este 0 907.8 0.9 92
2020-01-10 23:00:00 -1.5 0 Calma 8 Este 0 907.3 0.6 91
2020-01-10 22:00:00 -0.3 2 Nordeste 7 Norte 0 907.1 0.8 86
2020-01-10 21:00:00 1.9 3 Noroeste 14 Nordeste 0 906.9 1.4 83
2020-01-10 20:00:00 3.6 6 Norte 16 Norte 0 906.7 1.8 76
2020-01-10 19:00:00 4.1 8 Noroeste 19 Norte 0 906.3 1.7 71
2020-01-10 18:00:00 5.1 8 Noroeste 29 Norte 0 905.5 1 68
2020-01-10 17:00:00 5.8 14 Norte 26 Norte 0 904.9 0.2 65
2020-01-10 16:00:00 6.7 12 Norte 26 Norte 0 904.6 -0.5 61
2020-01-10 15:00:00 6.5 12 Norte 26 Norte 0 904.5 -1 60
2020-01-10 14:00:00 7.1 12 Norte 27 Nordeste 0 904.7 -0.6 60
2020-01-10 13:00:00 5.2 11 Norte 26 Norte 0 905.1 0.3 66
2020-01-10 12:00:00 5.2 13 Norte 27 Norte 0 905.5 1.2 66
2020-01-10 11:00:00 4.6 12 Norte 25 Norte 0 905.3 1.2 70
2020-01-10 10:00:00 1.2 5 Sudoeste 14 Oeste 0 904.8 1.3 89
2020-01-10 09:00:00 0.1 6 Oeste 11 Oeste 0 904.3 1.1 90
2020-01-10 08:00:00 1.9 6 Norte 21 Norte 0 904.1 1.1 83
2020-01-10 07:00:00 1.4 4 Norte 18 Norte 0 903.5 0.8 84
2020-01-10 06:00:00 2.6 6 Oeste 12 Oeste 0 903.2 0.6 82
2020-01-10 05:00:00 3 4 Oeste 19 Oeste 0 903 0.5 79
2020-01-10 04:00:00 2 0 Calma 6 Sudoeste 0 902.7 -0.1 88
2020-01-10 03:00:00 2.6 5 Noroeste 12 Norte 0 902.6 -0.1 91
2020-01-10 02:00:00 2.1 3 Este 5 Este 0 902.5 -0.2 91
2020-01-10 01:00:00 1.7 2 Sudeste 5 Este 0 902.8 0 91
2020-01-10 00:00:00 1.2 0 Calma 5 Este 0 902.7 -0.5 88
2020-01-09 23:00:00 1.8 3 Este 5 Nordeste 0 902.7 -0.2 86
2020-01-09 22:00:00 3.7 2 Este 5 Oeste 0 902.8 0.8 79
2020-01-09 21:00:00 5.4 4 Sudoeste 11 Oeste 0 903.2 1 77
2020-01-09 20:00:00 3.8 3 Sudoeste 5 Sur 0 902.9 0.8 78
2020-01-09 19:00:00 6.2 2 Sudoeste 10 Oeste 0 902 0.5 70
2020-01-09 18:00:00 10 4 Sudoeste 21 Oeste 0 902.2 0.1 60
2020-01-09 17:00:00 12.4 10 Oeste 25 Oeste 0 902.1 -0.6 53
2020-01-09 16:00:00 12.9 10 Oeste 18 Oeste 0 901.5 -2.5 49
2020-01-09 15:00:00 13.1 9 Oeste 18 Noroeste 0 902.1 -2.6 50
2020-01-09 14:00:00 12.2 6 Sudoeste 17 Oeste 0 902.7 -2.5 53
2020-01-09 13:00:00 9.7 8 Oeste 13 Oeste 0 904 -1.3 64
2020-01-09 12:00:00 4.8 2 Sur 5 Sur 0 904.7 -0.4 78
2020-01-09 11:00:00 0.6 0 Calma 5 Sudeste 0 905.2 0.2 94
2020-01-09 10:00:00 -3.7 2 Sur 4 Sur 0 905.3 0.1 97
2020-01-09 09:00:00 -5.1 0 Calma 4 Sudeste 0 905.1 -0.2 93
2020-01-09 08:00:00 -5 0 Calma 3 Este 0 905 -0.8 93
2020-01-09 07:00:00 -4.8 0 Calma 4 Sudeste 0 905.2 -1.1 94
2020-01-09 06:00:00 -4.8 0 Calma 4 Este 0 905.3 -1.2 93
2020-01-09 05:00:00 -4.6 0 Calma 2 Este 0 905.8 -0.7 92
2020-01-09 04:00:00 -4.1 0 Calma 4 Nordeste 0 906.3 -0.3 93
2020-01-09 03:00:00 -3.6 0 Calma 4 Sudeste 0 906.5 -0.4 93
2020-01-09 02:00:00 -3.3 0 Calma 3 Este 0 906.5 -0.6 93
2020-01-09 01:00:00 -2.8 0 Calma 4 Este 0 906.6 -0.6 92
2020-01-09 00:00:00 -2 3 Este 4 Este 0 906.9 -0.1 92
2020-01-08 23:00:00 -1.5 0 Calma 5 Este 0 907.1 0.2 92
2020-01-08 22:00:00 -0.3 0 Calma 5 Este 0 907.2 0.5 89
2020-01-08 21:00:00 1.1 0 Calma 5 Este 0 907 0.7 86
2020-01-08 20:00:00 3.1 0 Calma 5 Nordeste 0 906.9 0.9 81
2020-01-08 19:00:00 6.3 2 Este 9 Nordeste 0 906.7 0.8 71
2020-01-08 18:00:00 9.4 8 Norte 12 Norte 0 906.3 0.2 63
2020-01-08 17:00:00 11.9 8 Norte 15 Norte 0 906 -0.5 56
2020-01-08 16:00:00 12.6 8 Norte 18 Norte 0 905.9 -1.2 53
2020-01-08 15:00:00 12.6 6 Sudeste 17 Este 0 906.1 -1.9 50
2020-01-08 14:00:00 13.1 7 Nordeste 18 Este 0 906.5 -2 51
2020-01-08 13:00:00 10.6 3 Sur 6 Sudeste 0 907.1 -1.3 52
2020-01-08 12:00:00 5.7 2 Sudoeste 4 Sudoeste 0 908 0.4 64
2020-01-08 11:00:00 0.9 2 Oeste 6 Sudeste 0 908.5 1.2 72
2020-01-08 10:00:00 -3.2 3 Sudeste 5 Sudeste 0 908.4 1.1 91
2020-01-08 09:00:00 -4.8 2 Este 4 Sudeste 0 907.6 0.4 92
2020-01-08 08:00:00 -4.7 0 Calma 3 Sudeste 0 907.3 0 90
2020-01-08 07:00:00 -4.8 0 Calma 3 Este 0 907.3 -0.5 89
2020-01-08 06:00:00 -4.8 2 Sudoeste 5 Este 0 907.2 -0.7 90
2020-01-08 05:00:00 -4.9 0 Calma 3 Este 0 907.3 -0.7 89
2020-01-08 04:00:00 -4.8 0 Calma 4 Sudeste 0 907.8 -0.7 89
2020-01-08 03:00:00 -4.9 2 Este 4 Sur 0 907.9 -0.7 88
2020-01-08 02:00:00 -4.7 2 Este 4 Este 0 908 -0.6 88
2020-01-08 01:00:00 -4.4 0 Calma 4 Este 0 908.5 0.1 86
2020-01-08 00:00:00 -3.8 0 Calma 4 Sudeste 0 908.6 0.4 83
2020-01-07 23:00:00 -3.1 2 Sudeste 5 Sudeste 0 908.6 0.5 80
2020-01-07 22:00:00 -2.4 0 Calma 5 Sudeste 0 908.4 0.7 76
2020-01-07 21:00:00 -1.2 4 Este 5 Este 0 908.2 1 71
2020-01-07 20:00:00 0.7 2 Este 7 Este 0 908.1 1.1 64
2020-01-07 19:00:00 3.8 4 Este 8 Este 0 907.7 0.8 57
2020-01-07 18:00:00 9.4 3 Este 6 Oeste 0 907.2 0 42
2020-01-07 17:00:00 13.7 3 Sudoeste 11 Oeste 0 907 -1 32
2020-01-07 16:00:00 13.9 7 Oeste 12 Oeste 0 906.9 -2 30
2020-01-07 15:00:00 13.7 4 Oeste 8 Sudoeste 0 907.2 -2.5 32
2020-01-07 14:00:00 12.1 2 Oeste 5 Sur 0 908 -2.2 39
2020-01-07 13:00:00 7.7 2 Sudoeste 8 Sur 0 908.9 -1.1 50
2020-01-07 12:00:00 3.3 3 Sur 6 Sur 0 909.7 0.2 68
2020-01-07 11:00:00 -1.5 2 Oeste 4 Sur 0 910.2 1.1 85
2020-01-07 10:00:00 -5.6 2 Sur 4 Sudeste 0 910 1.3 95
2020-01-07 09:00:00 -7.3 0 Calma 4 Este 0 909.5 0.8 92
2020-01-07 08:00:00 -7.2 2 Este 4 Sudeste 0 909.1 0.4 91
2020-01-07 07:00:00 -6.9 0 Calma 4 Este 0 908.7 -0.3 90
2020-01-07 06:00:00 -6.4 0 Calma 3 Sudeste 0 908.7 -0.3 91
2020-01-07 05:00:00 -5.9 0 Calma 5 Este 0 908.7 -0.1 90
2020-01-07 04:00:00 -5.6 2 Este 4 Nordeste 0 909 0.3 91
2020-01-07 03:00:00 -5.2 0 Calma 6 Sudeste 0 909 0.2 90
2020-01-07 02:00:00 -4.8 3 Este 5 Este 0 908.8 0.3 91
2020-01-07 01:00:00 -4.2 0 Calma 5 Sudeste 0 908.7 0.2 88
2020-01-07 00:00:00 -3.6 2 Sur 4 Este 0 908.8 0.8 86
2020-01-06 23:00:00 -2.7 2 Sudeste 4 Sudeste 0 908.5 1.3 86
2020-01-06 22:00:00 -1.8 0 Calma 6 Sudeste 0 908.5 2.2 83
2020-01-06 21:00:00 -0.8 0 Calma 5 Sudeste 0 908 2.2 78
2020-01-06 20:00:00 1.1 2 Sudeste 6 Este 0 907.2 1.5 71
2020-01-06 19:00:00 4 3 Este 6 Este 0 906.3 0.9 63
2020-01-06 18:00:00 9 0 Calma 8 Oeste 0 905.8 0.5 45
2020-01-06 17:00:00 12.6 4 Sudoeste 13 Sudoeste 0 905.7 0.3 36
2020-01-06 16:00:00 13.3 7 Sudoeste 17 Oeste 0 905.4 -0.8 32
2020-01-06 15:00:00 13.7 9 Oeste 19 Sudoeste 0 905.3 -1.8 31
2020-01-06 14:00:00 13.3 10 Oeste 19 Oeste 0 905.4 -2 33
2020-01-06 13:00:00 9.4 3 Este 5 Este 0 906.2 -1.3 51
2020-01-06 12:00:00 4.1 3 Sur 5 Sudeste 0 907.1 0 69
2020-01-06 11:00:00 -1 0 Calma 4 Sur 0 907.4 1 89
2020-01-06 10:00:00 -5.1 0 Calma 4 Sudeste 0 907.5 1.2 96